sensor_id;sensor_type;location;lat;lon;timestamp;pressure;altitude;pressure_sealevel;temperature;humidity
22582;BME280;47125;48.542;9.052;2023-01-19T00:07:20;94919.69;;;0.08;74.11
22582;BME280;47125;48.542;9.052;2023-01-19T00:17:23;94923.91;;;0.02;74.04
22582;BME280;47125;48.542;9.052;2023-01-19T00:27:27;94931.97;;;0.00;73.58
22582;BME280;47125;48.542;9.052;2023-01-19T00:37:30;94941.06;;;-0.02;73.94
22582;BME280;47125;48.542;9.052;2023-01-19T00:47:34;94935.97;;;-0.17;73.80
22582;BME280;47125;48.542;9.052;2023-01-19T00:57:37;94939.44;;;-0.10;73.54
22582;BME280;47125;48.542;9.052;2023-01-19T01:07:41;94958.56;;;-0.22;73.97
22582;BME280;47125;48.542;9.052;2023-01-19T01:17:45;94952.06;;;-0.26;73.75
22582;BME280;47125;48.542;9.052;2023-01-19T01:27:49;94955.34;;;-0.24;73.89
22582;BME280;47125;48.542;9.052;2023-01-19T01:37:52;94958.91;;;-0.32;73.76
22582;BME280;47125;48.542;9.052;2023-01-19T01:48:01;94960.72;;;-0.32;73.20
22582;BME280;47125;48.542;9.052;2023-01-19T01:58:05;94959.09;;;-0.40;73.39
22582;BME280;47125;48.542;9.052;2023-01-19T02:08:12;94962.53;;;-0.39;73.40
22582;BME280;47125;48.542;9.052;2023-01-19T02:18:34;94957.25;;;-0.46;73.54
22582;BME280;47125;48.542;9.052;2023-01-19T02:28:40;94955.41;;;-0.52;73.28
22582;BME280;47125;48.542;9.052;2023-01-19T02:38:44;94956.63;;;-0.48;72.80
22582;BME280;47125;48.542;9.052;2023-01-19T02:48:48;94966.28;;;-0.55;73.04
22582;BME280;47125;48.542;9.052;2023-01-19T02:58:52;94985.78;;;-0.64;73.19
22582;BME280;47125;48.542;9.052;2023-01-19T03:09:00;94978.50;;;-0.69;72.87
22582;BME280;47125;48.542;9.052;2023-01-19T03:19:04;94977.28;;;-0.73;72.63
22582;BME280;47125;48.542;9.052;2023-01-19T03:29:10;94981.22;;;-0.83;72.96
22582;BME280;47125;48.542;9.052;2023-01-19T03:39:15;94984.88;;;-0.78;72.45
22582;BME280;47125;48.542;9.052;2023-01-19T03:49:21;94978.75;;;-0.64;72.32
22582;BME280;47125;48.542;9.052;2023-01-19T03:59:24;94994.53;;;-0.85;73.00
22582;BME280;47125;48.542;9.052;2023-01-19T04:09:27;94990.88;;;-0.84;72.40
22582;BME280;47125;48.542;9.052;2023-01-19T04:19:30;95002.91;;;-0.96;72.38
22582;BME280;47125;48.542;9.052;2023-01-19T04:29:34;94996.50;;;-0.93;72.63
22582;BME280;47125;48.542;9.052;2023-01-19T04:39:36;95001.16;;;-0.89;72.32
22582;BME280;47125;48.542;9.052;2023-01-19T04:49:40;95007.16;;;-0.95;72.62
22582;BME280;47125;48.542;9.052;2023-01-19T04:59:42;95009.22;;;-0.90;71.50
22582;BME280;47125;48.542;9.052;2023-01-19T05:09:46;95008.13;;;-0.96;72.11
22582;BME280;47125;48.542;9.052;2023-01-19T05:19:49;95025.88;;;-0.98;71.83
22582;BME280;47125;48.542;9.052;2023-01-19T05:29:53;95027.19;;;-0.87;71.11
22582;BME280;47125;48.542;9.052;2023-01-19T05:39:55;95035.09;;;-1.02;71.19
22582;BME280;47125;48.542;9.052;2023-01-19T05:49:59;95046.53;;;-1.09;71.63
22582;BME280;47125;48.542;9.052;2023-01-19T06:00:02;95044.81;;;-1.24;71.10
22582;BME280;47125;48.542;9.052;2023-01-19T06:10:06;95052.53;;;-1.16;71.43
22582;BME280;47125;48.542;9.052;2023-01-19T06:20:11;95064.56;;;-1.21;71.34
22582;BME280;47125;48.542;9.052;2023-01-19T06:30:16;95066.75;;;-1.25;71.09
22582;BME280;47125;48.542;9.052;2023-01-19T06:40:18;95079.59;;;-1.30;70.68
22582;BME280;47125;48.542;9.052;2023-01-19T06:50:22;95076.34;;;-1.32;71.37
22582;BME280;47125;48.542;9.052;2023-01-19T07:00:25;95072.59;;;-1.44;70.74
22582;BME280;47125;48.542;9.052;2023-01-19T07:10:29;95083.19;;;-1.52;70.79
22582;BME280;47125;48.542;9.052;2023-01-19T07:20:51;95084.28;;;-1.61;70.89
22582;BME280;47125;48.542;9.052;2023-01-19T07:30:56;95088.25;;;-1.65;71.13
22582;BME280;47125;48.542;9.052;2023-01-19T07:40:59;95093.41;;;-1.57;70.50
22582;BME280;47125;48.542;9.052;2023-01-19T07:51:03;95101.25;;;-1.57;70.75
22582;BME280;47125;48.542;9.052;2023-01-19T08:01:12;95115.66;;;-1.46;69.91
22582;BME280;47125;48.542;9.052;2023-01-19T08:11:16;95126.50;;;-1.49;70.08
22582;BME280;47125;48.542;9.052;2023-01-19T08:21:18;95137.06;;;-1.43;69.40
22582;BME280;47125;48.542;9.052;2023-01-19T08:31:23;95128.69;;;-1.32;69.30
22582;BME280;47125;48.542;9.052;2023-01-19T08:41:25;95138.22;;;-1.09;68.52
22582;BME280;47125;48.542;9.052;2023-01-19T08:51:29;95148.75;;;-1.03;68.19
22582;BME280;47125;48.542;9.052;2023-01-19T09:01:32;95149.50;;;-0.88;67.48
22582;BME280;47125;48.542;9.052;2023-01-19T09:11:36;95154.75;;;-0.67;66.88
22582;BME280;47125;48.542;9.052;2023-01-19T09:21:38;95165.22;;;-0.45;66.38
22582;BME280;47125;48.542;9.052;2023-01-19T09:31:42;95174.69;;;-0.17;65.94
22582;BME280;47125;48.542;9.052;2023-01-19T09:41:46;95171.81;;;0.06;65.59
22582;BME280;47125;48.542;9.052;2023-01-19T09:51:51;95169.78;;;0.42;64.45
22582;BME280;47125;48.542;9.052;2023-01-19T10:01:59;95175.28;;;0.47;64.59
22582;BME280;47125;48.542;9.052;2023-01-19T10:12:07;95161.72;;;0.44;65.12
22582;BME280;47125;48.542;9.052;2023-01-19T10:22:15;95178.75;;;0.61;64.50
22582;BME280;47125;48.542;9.052;2023-01-19T10:32:22;95153.91;;;0.57;64.02
22582;BME280;47125;48.542;9.052;2023-01-19T10:42:26;95152.53;;;0.68;63.93
22582;BME280;47125;48.542;9.052;2023-01-19T10:52:32;95155.59;;;0.84;63.88
22582;BME280;47125;48.542;9.052;2023-01-19T11:02:35;95149.78;;;1.08;63.68
22582;BME280;47125;48.542;9.052;2023-01-19T11:12:40;95156.53;;;1.31;63.97
22582;BME280;47125;48.542;9.052;2023-01-19T11:22:43;95144.78;;;1.27;63.79
22582;BME280;47125;48.542;9.052;2023-01-19T11:32:50;95161.38;;;1.53;63.79
22582;BME280;47125;48.542;9.052;2023-01-19T11:42:52;95155.50;;;1.38;64.76
22582;BME280;47125;48.542;9.052;2023-01-19T11:52:58;95140.13;;;3.65;59.38
22582;BME280;47125;48.542;9.052;2023-01-19T12:03:02;95132.38;;;3.70;58.95
22582;BME280;47125;48.542;9.052;2023-01-19T12:13:09;95133.22;;;3.40;59.94
22582;BME280;47125;48.542;9.052;2023-01-19T12:23:18;95134.75;;;2.91;61.09
22582;BME280;47125;48.542;9.052;2023-01-19T12:33:34;95137.72;;;2.63;63.33
22582;BME280;47125;48.542;9.052;2023-01-19T12:43:38;95129.56;;;2.65;63.88
22582;BME280;47125;48.542;9.052;2023-01-19T12:53:42;95138.16;;;2.54;63.74
22582;BME280;47125;48.542;9.052;2023-01-19T13:03:59;95137.81;;;2.88;63.52
22582;BME280;47125;48.542;9.052;2023-01-19T13:24:28;95139.22;;;2.40;65.43
22582;BME280;47125;48.542;9.052;2023-01-19T13:34:50;95139.22;;;2.40;65.96
22582;BME280;47125;48.542;9.052;2023-01-19T13:44:56;95149.19;;;2.18;67.01
22582;BME280;47125;48.542;9.052;2023-01-19T13:55:00;95145.50;;;2.26;67.18
22582;BME280;47125;48.542;9.052;2023-01-19T14:05:15;95160.56;;;2.05;67.54
22582;BME280;47125;48.542;9.052;2023-01-19T14:15:22;95151.44;;;2.14;67.53
22582;BME280;47125;48.542;9.052;2023-01-19T14:25:29;95158.09;;;2.10;68.02
22582;BME280;47125;48.542;9.052;2023-01-19T14:35:32;95150.84;;;2.12;68.25
22582;BME280;47125;48.542;9.052;2023-01-19T14:45:37;95144.16;;;2.10;68.38
22582;BME280;47125;48.542;9.052;2023-01-19T14:55:43;95150.38;;;2.29;68.36
22582;BME280;47125;48.542;9.052;2023-01-19T15:05:48;95139.47;;;3.14;67.71
22582;BME280;47125;48.542;9.052;2023-01-19T15:15:51;95144.53;;;2.77;67.38
22582;BME280;47125;48.542;9.052;2023-01-19T15:25:58;95144.75;;;2.76;67.27
22582;BME280;47125;48.542;9.052;2023-01-19T15:36:01;95144.09;;;7.68;57.19
22582;BME280;47125;48.542;9.052;2023-01-19T15:46:08;95135.00;;;4.74;59.24
22582;BME280;47125;48.542;9.052;2023-01-19T15:56:12;95136.66;;;3.15;64.89
22582;BME280;47125;48.542;9.052;2023-01-19T16:06:16;95137.41;;;2.85;66.17
22582;BME280;47125;48.542;9.052;2023-01-19T16:16:19;95134.13;;;2.38;67.15
22582;BME280;47125;48.542;9.052;2023-01-19T16:26:25;95138.81;;;2.43;67.51
22582;BME280;47125;48.542;9.052;2023-01-19T16:36:28;95142.25;;;2.37;67.88
22582;BME280;47125;48.542;9.052;2023-01-19T16:46:33;95129.91;;;2.31;68.94
22582;BME280;47125;48.542;9.052;2023-01-19T16:56:36;95140.47;;;2.24;69.11
22582;BME280;47125;48.542;9.052;2023-01-19T17:06:40;95148.59;;;2.16;68.86
22582;BME280;47125;48.542;9.052;2023-01-19T17:16:43;95141.88;;;2.20;69.21
22582;BME280;47125;48.542;9.052;2023-01-19T17:27:02;95142.53;;;1.96;70.35
22582;BME280;47125;48.542;9.052;2023-01-19T17:37:05;95140.50;;;2.04;69.76
22582;BME280;47125;48.542;9.052;2023-01-19T17:47:09;95143.53;;;2.01;70.03
22582;BME280;47125;48.542;9.052;2023-01-19T17:57:11;95147.56;;;2.10;70.29
22582;BME280;47125;48.542;9.052;2023-01-19T18:07:15;95149.22;;;1.98;70.10
22582;BME280;47125;48.542;9.052;2023-01-19T18:17:18;95148.63;;;1.96;70.12
22582;BME280;47125;48.542;9.052;2023-01-19T18:27:22;95153.69;;;1.98;69.75
22582;BME280;47125;48.542;9.052;2023-01-19T18:37:24;95154.69;;;2.03;69.62
22582;BME280;47125;48.542;9.052;2023-01-19T18:47:28;95149.84;;;1.94;69.82
22582;BME280;47125;48.542;9.052;2023-01-19T18:57:31;95152.28;;;1.89;70.19
22582;BME280;47125;48.542;9.052;2023-01-19T19:07:36;95161.00;;;1.89;69.95
22582;BME280;47125;48.542;9.052;2023-01-19T19:17:38;95158.38;;;1.89;70.35
22582;BME280;47125;48.542;9.052;2023-01-19T19:27:42;95156.75;;;1.88;70.57
22582;BME280;47125;48.542;9.052;2023-01-19T19:37:45;95160.78;;;1.84;71.36
22582;BME280;47125;48.542;9.052;2023-01-19T19:47:49;95170.91;;;1.81;71.17
22582;BME280;47125;48.542;9.052;2023-01-19T19:57:52;95166.66;;;1.86;71.68
22582;BME280;47125;48.542;9.052;2023-01-19T20:07:56;95181.66;;;1.79;72.17
22582;BME280;47125;48.542;9.052;2023-01-19T20:17:59;95174.16;;;1.89;71.64
22582;BME280;47125;48.542;9.052;2023-01-19T20:28:03;95178.00;;;1.67;72.37
22582;BME280;47125;48.542;9.052;2023-01-19T20:38:05;95179.22;;;1.64;73.29
22582;BME280;47125;48.542;9.052;2023-01-19T20:48:10;95189.34;;;1.61;74.10
22582;BME280;47125;48.542;9.052;2023-01-19T20:58:12;95199.44;;;1.57;74.47
22582;BME280;47125;48.542;9.052;2023-01-19T21:08:16;95200.47;;;1.50;74.72
22582;BME280;47125;48.542;9.052;2023-01-19T21:18:18;95211.94;;;1.36;75.95
22582;BME280;47125;48.542;9.052;2023-01-19T21:28:23;95207.50;;;1.36;75.79
22582;BME280;47125;48.542;9.052;2023-01-19T21:38:26;95203.66;;;1.26;75.57
22582;BME280;47125;48.542;9.052;2023-01-19T21:48:31;95218.63;;;1.45;75.16
22582;BME280;47125;48.542;9.052;2023-01-19T21:58:33;95218.03;;;1.36;74.82
22582;BME280;47125;48.542;9.052;2023-01-19T22:08:37;95223.34;;;1.56;74.34
22582;BME280;47125;48.542;9.052;2023-01-19T22:18:41;95229.41;;;1.50;75.23
22582;BME280;47125;48.542;9.052;2023-01-19T22:28:45;95233.00;;;1.36;76.27
22582;BME280;47125;48.542;9.052;2023-01-19T22:38:48;95237.84;;;1.39;76.15
22582;BME280;47125;48.542;9.052;2023-01-19T22:48:53;95253.78;;;1.24;75.63
22582;BME280;47125;48.542;9.052;2023-01-19T22:58:56;95244.84;;;1.12;74.43
22582;BME280;47125;48.542;9.052;2023-01-19T23:09:01;95245.34;;;0.81;75.11
22582;BME280;47125;48.542;9.052;2023-01-19T23:19:04;95254.63;;;0.77;75.10
22582;BME280;47125;48.542;9.052;2023-01-19T23:29:10;95259.03;;;0.70;75.50
22582;BME280;47125;48.542;9.052;2023-01-19T23:39:13;95265.03;;;0.57;75.68
22582;BME280;47125;48.542;9.052;2023-01-19T23:49:18;95270.06;;;0.52;75.90
22582;BME280;47125;48.542;9.052;2023-01-19T23:59:20;95284.16;;;0.45;76.27
